sensor_id;sensor_type;location;lat;lon;timestamp;temperature;humidity
34147;DHT22;20423;49.448;9.056;2023-04-25T00:02:13;5.30;99.90
34147;DHT22;20423;49.448;9.056;2023-04-25T00:04:39;5.30;99.90
34147;DHT22;20423;49.448;9.056;2023-04-25T00:07:05;5.30;99.90
34147;DHT22;20423;49.448;9.056;2023-04-25T00:09:32;5.40;99.90
34147;DHT22;20423;49.448;9.056;2023-04-25T00:11:58;5.40;99.90
34147;DHT22;20423;49.448;9.056;2023-04-25T00:14:23;5.40;99.90
34147;DHT22;20423;49.448;9.056;2023-04-25T00:16:49;5.40;99.90
34147;DHT22;20423;49.448;9.056;2023-04-25T00:19:17;5.40;99.90
34147;DHT22;20423;49.448;9.056;2023-04-25T00:21:42;5.40;99.90
34147;DHT22;20423;49.448;9.056;2023-04-25T00:24:11;5.40;99.90
34147;DHT22;20423;49.448;9.056;2023-04-25T00:26:37;5.40;99.90
34147;DHT22;20423;49.448;9.056;2023-04-25T00:29:03;5.40;99.90
34147;DHT22;20423;49.448;9.056;2023-04-25T00:31:29;5.40;99.90
34147;DHT22;20423;49.448;9.056;2023-04-25T00:33:55;5.50;99.90
34147;DHT22;20423;49.448;9.056;2023-04-25T00:36:20;5.40;99.90
34147;DHT22;20423;49.448;9.056;2023-04-25T00:38:46;5.40;99.90
34147;DHT22;20423;49.448;9.056;2023-04-25T00:41:12;5.40;99.90
34147;DHT22;20423;49.448;9.056;2023-04-25T00:43:38;5.40;99.90
34147;DHT22;20423;49.448;9.056;2023-04-25T00:46:05;5.40;99.90
34147;DHT22;20423;49.448;9.056;2023-04-25T00:48:31;5.40;99.90
34147;DHT22;20423;49.448;9.056;2023-04-25T00:50:59;5.40;99.90
34147;DHT22;20423;49.448;9.056;2023-04-25T00:53:27;5.30;99.90
34147;DHT22;20423;49.448;9.056;2023-04-25T00:55:53;5.20;99.90
34147;DHT22;20423;49.448;9.056;2023-04-25T00:58:20;5.20;99.90
34147;DHT22;20423;49.448;9.056;2023-04-25T01:00:47;5.10;99.90
34147;DHT22;20423;49.448;9.056;2023-04-25T01:03:15;5.10;99.90
34147;DHT22;20423;49.448;9.056;2023-04-25T01:05:45;5.00;99.90
34147;DHT22;20423;49.448;9.056;2023-04-25T01:08:12;5.00;99.90
34147;DHT22;20423;49.448;9.056;2023-04-25T01:10:38;4.90;99.90
34147;DHT22;20423;49.448;9.056;2023-04-25T01:13:03;4.90;99.90
34147;DHT22;20423;49.448;9.056;2023-04-25T01:15:29;4.90;99.90
34147;DHT22;20423;49.448;9.056;2023-04-25T01:17:55;4.90;99.90
34147;DHT22;20423;49.448;9.056;2023-04-25T01:20:22;4.80;99.90
34147;DHT22;20423;49.448;9.056;2023-04-25T01:22:50;4.80;99.90
34147;DHT22;20423;49.448;9.056;2023-04-25T01:25:15;4.80;99.90
34147;DHT22;20423;49.448;9.056;2023-04-25T01:27:42;4.70;99.90
34147;DHT22;20423;49.448;9.056;2023-04-25T01:30:09;4.70;99.90
34147;DHT22;20423;49.448;9.056;2023-04-25T01:32:35;4.70;99.90
34147;DHT22;20423;49.448;9.056;2023-04-25T01:35:08;4.70;99.90
34147;DHT22;20423;49.448;9.056;2023-04-25T01:37:39;4.70;99.90
34147;DHT22;20423;49.448;9.056;2023-04-25T01:40:06;4.70;99.90
34147;DHT22;20423;49.448;9.056;2023-04-25T01:42:33;4.60;99.90
34147;DHT22;20423;49.448;9.056;2023-04-25T01:44:59;4.50;99.90
34147;DHT22;20423;49.448;9.056;2023-04-25T01:47:26;4.40;99.90
34147;DHT22;20423;49.448;9.056;2023-04-25T01:49:54;4.40;99.90
34147;DHT22;20423;49.448;9.056;2023-04-25T01:52:20;4.40;99.90
34147;DHT22;20423;49.448;9.056;2023-04-25T01:54:47;4.30;99.90
34147;DHT22;20423;49.448;9.056;2023-04-25T01:57:15;4.30;99.90
34147;DHT22;20423;49.448;9.056;2023-04-25T01:59:43;4.30;99.90
34147;DHT22;20423;49.448;9.056;2023-04-25T02:02:18;4.40;99.90
34147;DHT22;20423;49.448;9.056;2023-04-25T02:04:43;4.50;99.90
34147;DHT22;20423;49.448;9.056;2023-04-25T02:07:09;4.50;99.90
34147;DHT22;20423;49.448;9.056;2023-04-25T02:09:44;4.50;99.90
34147;DHT22;20423;49.448;9.056;2023-04-25T02:12:11;4.50;99.90
34147;DHT22;20423;49.448;9.056;2023-04-25T02:14:55;4.50;99.90
34147;DHT22;20423;49.448;9.056;2023-04-25T02:17:27;4.50;99.90
34147;DHT22;20423;49.448;9.056;2023-04-25T02:19:52;4.60;99.90
34147;DHT22;20423;49.448;9.056;2023-04-25T02:22:18;4.60;99.90
34147;DHT22;20423;49.448;9.056;2023-04-25T02:24:46;4.70;99.90
34147;DHT22;20423;49.448;9.056;2023-04-25T02:27:11;4.70;99.90
34147;DHT22;20423;49.448;9.056;2023-04-25T02:29:38;4.70;99.90
34147;DHT22;20423;49.448;9.056;2023-04-25T02:32:04;4.70;99.90
34147;DHT22;20423;49.448;9.056;2023-04-25T02:34:29;4.80;99.90
34147;DHT22;20423;49.448;9.056;2023-04-25T02:36:55;4.80;99.90
34147;DHT22;20423;49.448;9.056;2023-04-25T02:39:21;4.80;99.90
34147;DHT22;20423;49.448;9.056;2023-04-25T02:41:48;4.80;99.90
34147;DHT22;20423;49.448;9.056;2023-04-25T02:44:14;4.90;99.90
34147;DHT22;20423;49.448;9.056;2023-04-25T02:46:40;4.90;99.90
34147;DHT22;20423;49.448;9.056;2023-04-25T02:49:06;4.90;99.90
34147;DHT22;20423;49.448;9.056;2023-04-25T02:51:33;4.90;99.90
34147;DHT22;20423;49.448;9.056;2023-04-25T02:53:58;4.90;99.90
34147;DHT22;20423;49.448;9.056;2023-04-25T02:56:24;4.90;99.90
34147;DHT22;20423;49.448;9.056;2023-04-25T02:58:52;5.00;99.90
34147;DHT22;20423;49.448;9.056;2023-04-25T03:01:18;4.90;99.90
34147;DHT22;20423;49.448;9.056;2023-04-25T03:03:43;4.90;99.90
34147;DHT22;20423;49.448;9.056;2023-04-25T03:06:09;4.90;99.90
34147;DHT22;20423;49.448;9.056;2023-04-25T03:08:36;4.90;99.90
34147;DHT22;20423;49.448;9.056;2023-04-25T03:11:02;4.90;99.90
34147;DHT22;20423;49.448;9.056;2023-04-25T03:13:27;4.90;99.90
34147;DHT22;20423;49.448;9.056;2023-04-25T03:15:55;5.00;99.90
34147;DHT22;20423;49.448;9.056;2023-04-25T03:18:21;4.90;99.90
34147;DHT22;20423;49.448;9.056;2023-04-25T03:20:46;5.00;99.90
34147;DHT22;20423;49.448;9.056;2023-04-25T03:23:12;5.00;99.90
34147;DHT22;20423;49.448;9.056;2023-04-25T03:25:41;4.90;99.90
34147;DHT22;20423;49.448;9.056;2023-04-25T03:28:06;4.90;99.90
34147;DHT22;20423;49.448;9.056;2023-04-25T03:30:32;4.90;99.90
34147;DHT22;20423;49.448;9.056;2023-04-25T03:32:58;4.90;99.90
34147;DHT22;20423;49.448;9.056;2023-04-25T03:35:24;4.90;99.90
34147;DHT22;20423;49.448;9.056;2023-04-25T03:37:50;4.90;99.90
34147;DHT22;20423;49.448;9.056;2023-04-25T03:40:21;5.00;99.90
34147;DHT22;20423;49.448;9.056;2023-04-25T03:43:13;5.00;99.90
34147;DHT22;20423;49.448;9.056;2023-04-25T03:45:44;5.00;99.90
34147;DHT22;20423;49.448;9.056;2023-04-25T03:48:11;5.00;99.90
34147;DHT22;20423;49.448;9.056;2023-04-25T03:50:37;5.00;99.90
34147;DHT22;20423;49.448;9.056;2023-04-25T03:53:03;4.90;99.90
34147;DHT22;20423;49.448;9.056;2023-04-25T03:55:39;5.00;99.90
34147;DHT22;20423;49.448;9.056;2023-04-25T03:58:07;4.90;99.90
34147;DHT22;20423;49.448;9.056;2023-04-25T04:00:34;4.90;99.90
34147;DHT22;20423;49.448;9.056;2023-04-25T04:03:01;4.90;99.90
34147;DHT22;20423;49.448;9.056;2023-04-25T04:05:27;4.90;99.90
34147;DHT22;20423;49.448;9.056;2023-04-25T04:07:55;4.90;99.90
34147;DHT22;20423;49.448;9.056;2023-04-25T04:10:22;4.90;99.90
34147;DHT22;20423;49.448;9.056;2023-04-25T04:12:47;4.90;99.90
34147;DHT22;20423;49.448;9.056;2023-04-25T04:15:13;4.90;99.90
34147;DHT22;20423;49.448;9.056;2023-04-25T04:17:40;4.90;99.90
34147;DHT22;20423;49.448;9.056;2023-04-25T04:20:08;4.90;99.90
34147;DHT22;20423;49.448;9.056;2023-04-25T04:22:34;4.90;99.90
34147;DHT22;20423;49.448;9.056;2023-04-25T04:25:05;4.90;99.90
34147;DHT22;20423;49.448;9.056;2023-04-25T04:27:51;4.90;99.90
34147;DHT22;20423;49.448;9.056;2023-04-25T04:30:39;4.90;99.90
34147;DHT22;20423;49.448;9.056;2023-04-25T04:33:08;4.90;99.90
34147;DHT22;20423;49.448;9.056;2023-04-25T04:35:34;4.90;99.90
34147;DHT22;20423;49.448;9.056;2023-04-25T04:38:00;4.90;99.90
34147;DHT22;20423;49.448;9.056;2023-04-25T04:40:30;4.90;99.90
34147;DHT22;20423;49.448;9.056;2023-04-25T04:43:12;4.90;99.90
34147;DHT22;20423;49.448;9.056;2023-04-25T04:46:00;4.90;99.90
34147;DHT22;20423;49.448;9.056;2023-04-25T04:48:40;4.90;99.90
34147;DHT22;20423;49.448;9.056;2023-04-25T04:51:19;4.90;99.90
34147;DHT22;20423;49.448;9.056;2023-04-25T04:54:06;4.90;99.90
34147;DHT22;20423;49.448;9.056;2023-04-25T04:56:53;4.90;99.90
34147;DHT22;20423;49.448;9.056;2023-04-25T04:59:37;4.90;99.90
34147;DHT22;20423;49.448;9.056;2023-04-25T05:02:33;4.90;99.90
34147;DHT22;20423;49.448;9.056;2023-04-25T05:05:27;5.00;99.90
34147;DHT22;20423;49.448;9.056;2023-04-25T05:07:59;5.00;99.90
34147;DHT22;20423;49.448;9.056;2023-04-25T05:10:50;5.00;99.90
34147;DHT22;20423;49.448;9.056;2023-04-25T05:13:30;4.90;99.90
34147;DHT22;20423;49.448;9.056;2023-04-25T05:16:06;5.00;99.90
34147;DHT22;20423;49.448;9.056;2023-04-25T05:18:47;5.00;99.90
34147;DHT22;20423;49.448;9.056;2023-04-25T05:21:31;5.00;99.90
34147;DHT22;20423;49.448;9.056;2023-04-25T05:24:11;5.00;99.90
34147;DHT22;20423;49.448;9.056;2023-04-25T05:27:07;4.90;99.90
34147;DHT22;20423;49.448;9.056;2023-04-25T05:29:35;5.00;99.90
34147;DHT22;20423;49.448;9.056;2023-04-25T05:32:17;5.00;99.90
34147;DHT22;20423;49.448;9.056;2023-04-25T05:34:44;5.00;99.90
34147;DHT22;20423;49.448;9.056;2023-04-25T05:37:19;5.10;99.90
34147;DHT22;20423;49.448;9.056;2023-04-25T05:39:53;5.10;99.90
34147;DHT22;20423;49.448;9.056;2023-04-25T05:42:34;5.10;99.90
34147;DHT22;20423;49.448;9.056;2023-04-25T05:45:07;5.20;99.90
34147;DHT22;20423;49.448;9.056;2023-04-25T05:47:46;5.20;99.90
34147;DHT22;20423;49.448;9.056;2023-04-25T05:50:37;5.20;99.90
34147;DHT22;20423;49.448;9.056;2023-04-25T05:53:15;5.20;99.90
34147;DHT22;20423;49.448;9.056;2023-04-25T05:55:42;5.30;99.90
34147;DHT22;20423;49.448;9.056;2023-04-25T05:58:20;5.30;99.90
34147;DHT22;20423;49.448;9.056;2023-04-25T06:00:46;5.30;99.90
34147;DHT22;20423;49.448;9.056;2023-04-25T06:03:12;5.30;99.90
34147;DHT22;20423;49.448;9.056;2023-04-25T06:05:42;5.30;99.90
34147;DHT22;20423;49.448;9.056;2023-04-25T06:08:08;5.40;99.90
34147;DHT22;20423;49.448;9.056;2023-04-25T06:10:34;5.40;99.90
34147;DHT22;20423;49.448;9.056;2023-04-25T06:13:00;5.40;99.90
34147;DHT22;20423;49.448;9.056;2023-04-25T06:15:26;5.60;99.90
34147;DHT22;20423;49.448;9.056;2023-04-25T06:17:51;5.70;99.90
34147;DHT22;20423;49.448;9.056;2023-04-25T06:20:17;5.70;99.90
34147;DHT22;20423;49.448;9.056;2023-04-25T06:22:43;5.80;99.90
34147;DHT22;20423;49.448;9.056;2023-04-25T06:25:09;5.90;99.90
34147;DHT22;20423;49.448;9.056;2023-04-25T06:27:35;5.90;99.90
34147;DHT22;20423;49.448;9.056;2023-04-25T06:30:02;5.90;99.90
34147;DHT22;20423;49.448;9.056;2023-04-25T06:32:30;5.90;99.90
34147;DHT22;20423;49.448;9.056;2023-04-25T06:34:58;6.00;99.90
34147;DHT22;20423;49.448;9.056;2023-04-25T06:37:25;6.00;99.90
34147;DHT22;20423;49.448;9.056;2023-04-25T06:39:51;6.10;99.90
34147;DHT22;20423;49.448;9.056;2023-04-25T06:42:17;6.20;99.90
34147;DHT22;20423;49.448;9.056;2023-04-25T06:44:51;6.20;99.90
34147;DHT22;20423;49.448;9.056;2023-04-25T06:47:19;6.30;99.90
34147;DHT22;20423;49.448;9.056;2023-04-25T06:49:45;6.40;99.90
34147;DHT22;20423;49.448;9.056;2023-04-25T06:52:14;6.40;99.90
34147;DHT22;20423;49.448;9.056;2023-04-25T06:54:41;6.50;99.90
34147;DHT22;20423;49.448;9.056;2023-04-25T06:57:32;6.50;99.90
34147;DHT22;20423;49.448;9.056;2023-04-25T07:00:12;6.60;99.90
34147;DHT22;20423;49.448;9.056;2023-04-25T07:02:39;6.70;99.90
34147;DHT22;20423;49.448;9.056;2023-04-25T07:05:07;6.90;99.90
34147;DHT22;20423;49.448;9.056;2023-04-25T07:07:35;7.00;99.90
34147;DHT22;20423;49.448;9.056;2023-04-25T07:10:06;7.20;99.90
34147;DHT22;20423;49.448;9.056;2023-04-25T07:12:32;7.50;99.90
34147;DHT22;20423;49.448;9.056;2023-04-25T07:14:58;7.60;99.90
34147;DHT22;20423;49.448;9.056;2023-04-25T07:17:24;7.50;99.90
34147;DHT22;20423;49.448;9.056;2023-04-25T07:19:51;7.30;99.90
34147;DHT22;20423;49.448;9.056;2023-04-25T07:22:16;6.90;99.90
34147;DHT22;20423;49.448;9.056;2023-04-25T07:24:42;6.40;99.90
34147;DHT22;20423;49.448;9.056;2023-04-25T07:27:13;6.00;99.90
34147;DHT22;20423;49.448;9.056;2023-04-25T07:29:46;5.80;99.90
34147;DHT22;20423;49.448;9.056;2023-04-25T07:32:12;5.80;99.90
34147;DHT22;20423;49.448;9.056;2023-04-25T07:34:41;6.00;99.90
34147;DHT22;20423;49.448;9.056;2023-04-25T07:37:07;6.40;99.90
34147;DHT22;20423;49.448;9.056;2023-04-25T07:39:42;6.50;99.90
34147;DHT22;20423;49.448;9.056;2023-04-25T07:42:08;6.40;99.90
34147;DHT22;20423;49.448;9.056;2023-04-25T07:44:37;6.20;99.90
34147;DHT22;20423;49.448;9.056;2023-04-25T07:47:09;6.20;99.90
34147;DHT22;20423;49.448;9.056;2023-04-25T07:49:36;6.10;99.90
34147;DHT22;20423;49.448;9.056;2023-04-25T07:52:04;6.20;99.90
34147;DHT22;20423;49.448;9.056;2023-04-25T07:54:32;6.20;99.90
34147;DHT22;20423;49.448;9.056;2023-04-25T07:57:04;6.30;99.90
34147;DHT22;20423;49.448;9.056;2023-04-25T07:59:33;6.40;99.90
34147;DHT22;20423;49.448;9.056;2023-04-25T08:02:01;6.60;99.90
34147;DHT22;20423;49.448;9.056;2023-04-25T08:04:27;6.60;99.90
34147;DHT22;20423;49.448;9.056;2023-04-25T08:07:04;6.70;99.90
34147;DHT22;20423;49.448;9.056;2023-04-25T08:09:37;6.70;99.90
34147;DHT22;20423;49.448;9.056;2023-04-25T08:12:07;6.70;99.90
34147;DHT22;20423;49.448;9.056;2023-04-25T08:14:33;6.80;99.90
34147;DHT22;20423;49.448;9.056;2023-04-25T08:17:03;6.80;99.90
34147;DHT22;20423;49.448;9.056;2023-04-25T08:19:30;7.10;99.90
34147;DHT22;20423;49.448;9.056;2023-04-25T08:21:57;7.30;99.90
34147;DHT22;20423;49.448;9.056;2023-04-25T08:24:30;7.40;99.90
34147;DHT22;20423;49.448;9.056;2023-04-25T08:26:57;7.40;99.90
34147;DHT22;20423;49.448;9.056;2023-04-25T08:29:26;7.40;99.90
34147;DHT22;20423;49.448;9.056;2023-04-25T08:31:53;7.30;99.90
34147;DHT22;20423;49.448;9.056;2023-04-25T08:34:19;7.40;99.90
34147;DHT22;20423;49.448;9.056;2023-04-25T08:36:49;7.60;99.90
34147;DHT22;20423;49.448;9.056;2023-04-25T08:39:36;7.80;99.90
34147;DHT22;20423;49.448;9.056;2023-04-25T08:42:21;8.10;99.90
34147;DHT22;20423;49.448;9.056;2023-04-25T08:44:49;8.00;99.90
34147;DHT22;20423;49.448;9.056;2023-04-25T08:47:15;7.90;99.90
34147;DHT22;20423;49.448;9.056;2023-04-25T08:49:53;8.10;99.90
34147;DHT22;20423;49.448;9.056;2023-04-25T08:52:22;8.10;99.90
34147;DHT22;20423;49.448;9.056;2023-04-25T08:54:49;7.90;99.90
34147;DHT22;20423;49.448;9.056;2023-04-25T08:57:17;7.80;99.90
34147;DHT22;20423;49.448;9.056;2023-04-25T08:59:46;7.80;99.90
34147;DHT22;20423;49.448;9.056;2023-04-25T09:02:12;7.80;99.90
34147;DHT22;20423;49.448;9.056;2023-04-25T09:04:45;8.10;99.90
34147;DHT22;20423;49.448;9.056;2023-04-25T09:07:11;8.40;99.90
34147;DHT22;20423;49.448;9.056;2023-04-25T09:09:38;8.70;99.90
34147;DHT22;20423;49.448;9.056;2023-04-25T09:12:05;8.90;99.90
34147;DHT22;20423;49.448;9.056;2023-04-25T09:14:31;8.70;99.90
34147;DHT22;20423;49.448;9.056;2023-04-25T09:17:19;8.60;99.90
34147;DHT22;20423;49.448;9.056;2023-04-25T09:19:51;9.20;99.90
34147;DHT22;20423;49.448;9.056;2023-04-25T09:22:22;9.50;99.90
34147;DHT22;20423;49.448;9.056;2023-04-25T09:24:48;9.90;99.90
34147;DHT22;20423;49.448;9.056;2023-04-25T09:27:21;9.90;99.90
34147;DHT22;20423;49.448;9.056;2023-04-25T09:30:09;10.10;99.90
34147;DHT22;20423;49.448;9.056;2023-04-25T09:32:56;10.70;99.90
34147;DHT22;20423;49.448;9.056;2023-04-25T09:35:24;11.10;99.90
34147;DHT22;20423;49.448;9.056;2023-04-25T09:37:52;11.30;99.90
34147;DHT22;20423;49.448;9.056;2023-04-25T09:40:51;10.50;99.90
34147;DHT22;20423;49.448;9.056;2023-04-25T09:43:38;10.40;99.90
34147;DHT22;20423;49.448;9.056;2023-04-25T09:46:09;10.30;99.90
34147;DHT22;20423;49.448;9.056;2023-04-25T09:48:39;10.50;99.90
34147;DHT22;20423;49.448;9.056;2023-04-25T09:51:09;10.80;99.90
34147;DHT22;20423;49.448;9.056;2023-04-25T09:53:38;11.10;99.90
34147;DHT22;20423;49.448;9.056;2023-04-25T09:56:20;10.50;99.90
34147;DHT22;20423;49.448;9.056;2023-04-25T09:58:50;9.90;99.90
34147;DHT22;20423;49.448;9.056;2023-04-25T10:01:19;10.00;99.90
34147;DHT22;20423;49.448;9.056;2023-04-25T10:04:01;10.40;99.90
34147;DHT22;20423;49.448;9.056;2023-04-25T10:06:42;10.20;99.90
34147;DHT22;20423;49.448;9.056;2023-04-25T10:09:09;10.90;99.90
34147;DHT22;20423;49.448;9.056;2023-04-25T10:11:36;12.10;99.90
34147;DHT22;20423;49.448;9.056;2023-04-25T10:14:04;13.50;99.90
34147;DHT22;20423;49.448;9.056;2023-04-25T10:16:31;13.60;99.90
34147;DHT22;20423;49.448;9.056;2023-04-25T10:18:57;12.70;99.90
34147;DHT22;20423;49.448;9.056;2023-04-25T10:21:23;11.70;99.90
34147;DHT22;20423;49.448;9.056;2023-04-25T10:23:49;11.20;99.90
34147;DHT22;20423;49.448;9.056;2023-04-25T10:26:16;11.00;99.90
34147;DHT22;20423;49.448;9.056;2023-04-25T10:29:00;10.90;99.90
34147;DHT22;20423;49.448;9.056;2023-04-25T10:31:26;11.40;99.90
34147;DHT22;20423;49.448;9.056;2023-04-25T10:33:53;12.00;99.90
34147;DHT22;20423;49.448;9.056;2023-04-25T10:36:20;12.70;99.90
34147;DHT22;20423;49.448;9.056;2023-04-25T10:38:48;13.10;99.90
34147;DHT22;20423;49.448;9.056;2023-04-25T10:41:18;13.20;99.90
34147;DHT22;20423;49.448;9.056;2023-04-25T10:43:49;13.20;99.90
34147;DHT22;20423;49.448;9.056;2023-04-25T10:46:23;12.70;99.90
34147;DHT22;20423;49.448;9.056;2023-04-25T10:48:54;11.80;99.90
34147;DHT22;20423;49.448;9.056;2023-04-25T10:51:22;11.20;99.90
34147;DHT22;20423;49.448;9.056;2023-04-25T10:56:21;11.50;99.90
34147;DHT22;20423;49.448;9.056;2023-04-25T10:58:47;12.60;99.90
34147;DHT22;20423;49.448;9.056;2023-04-25T11:01:14;12.80;99.90
34147;DHT22;20423;49.448;9.056;2023-04-25T11:03:41;13.00;99.90
34147;DHT22;20423;49.448;9.056;2023-04-25T11:06:29;13.80;99.90
34147;DHT22;20423;49.448;9.056;2023-04-25T11:08:57;14.30;99.90
34147;DHT22;20423;49.448;9.056;2023-04-25T11:11:25;13.90;99.90
34147;DHT22;20423;49.448;9.056;2023-04-25T11:13:51;12.90;99.90
34147;DHT22;20423;49.448;9.056;2023-04-25T11:16:17;12.70;99.90
34147;DHT22;20423;49.448;9.056;2023-04-25T11:18:44;12.30;99.90
34147;DHT22;20423;49.448;9.056;2023-04-25T11:21:10;11.70;99.90
34147;DHT22;20423;49.448;9.056;2023-04-25T11:23:36;11.10;99.90
34147;DHT22;20423;49.448;9.056;2023-04-25T11:26:03;10.60;99.90
34147;DHT22;20423;49.448;9.056;2023-04-25T11:28:29;9.70;99.90
34147;DHT22;20423;49.448;9.056;2023-04-25T11:30:56;9.20;99.90
34147;DHT22;20423;49.448;9.056;2023-04-25T11:33:25;8.70;99.90
34147;DHT22;20423;49.448;9.056;2023-04-25T11:36:05;8.40;99.90
34147;DHT22;20423;49.448;9.056;2023-04-25T11:38:30;8.40;99.90
34147;DHT22;20423;49.448;9.056;2023-04-25T11:40:56;8.60;99.90
34147;DHT22;20423;49.448;9.056;2023-04-25T11:43:22;9.10;99.90
34147;DHT22;20423;49.448;9.056;2023-04-25T11:45:49;9.50;99.90
34147;DHT22;20423;49.448;9.056;2023-04-25T11:48:16;9.80;99.90
34147;DHT22;20423;49.448;9.056;2023-04-25T11:50:42;10.40;99.90
34147;DHT22;20423;49.448;9.056;2023-04-25T11:53:08;11.20;99.90
34147;DHT22;20423;49.448;9.056;2023-04-25T11:55:34;12.20;99.90
34147;DHT22;20423;49.448;9.056;2023-04-25T11:58:01;12.60;99.90
34147;DHT22;20423;49.448;9.056;2023-04-25T12:00:28;12.80;99.90
34147;DHT22;20423;49.448;9.056;2023-04-25T12:02:55;12.60;99.90
34147;DHT22;20423;49.448;9.056;2023-04-25T12:05:30;11.80;99.90
34147;DHT22;20423;49.448;9.056;2023-04-25T12:08:12;11.20;99.90
34147;DHT22;20423;49.448;9.056;2023-04-25T12:10:39;10.30;99.90
34147;DHT22;20423;49.448;9.056;2023-04-25T12:13:23;9.70;99.90
34147;DHT22;20423;49.448;9.056;2023-04-25T12:15:49;9.00;99.90
34147;DHT22;20423;49.448;9.056;2023-04-25T12:18:20;8.40;99.90
34147;DHT22;20423;49.448;9.056;2023-04-25T12:20:47;8.10;99.90
34147;DHT22;20423;49.448;9.056;2023-04-25T12:23:12;8.10;99.90
34147;DHT22;20423;49.448;9.056;2023-04-25T12:25:43;8.20;99.90
34147;DHT22;20423;49.448;9.056;2023-04-25T12:31:01;8.70;99.90
34147;DHT22;20423;49.448;9.056;2023-04-25T12:33:32;9.00;99.90
34147;DHT22;20423;49.448;9.056;2023-04-25T12:35:58;9.30;99.90
34147;DHT22;20423;49.448;9.056;2023-04-25T12:38:26;9.60;99.90
34147;DHT22;20423;49.448;9.056;2023-04-25T12:40:53;10.20;99.90
34147;DHT22;20423;49.448;9.056;2023-04-25T12:43:19;11.00;99.90
34147;DHT22;20423;49.448;9.056;2023-04-25T12:45:47;11.50;99.90
34147;DHT22;20423;49.448;9.056;2023-04-25T12:48:13;11.40;99.90
34147;DHT22;20423;49.448;9.056;2023-04-25T12:50:39;11.10;99.90
34147;DHT22;20423;49.448;9.056;2023-04-25T12:53:04;10.80;99.90
34147;DHT22;20423;49.448;9.056;2023-04-25T12:55:46;10.70;99.90
34147;DHT22;20423;49.448;9.056;2023-04-25T12:58:13;10.80;99.90
34147;DHT22;20423;49.448;9.056;2023-04-25T13:00:39;10.70;99.90
34147;DHT22;20423;49.448;9.056;2023-04-25T13:03:04;10.80;99.90
34147;DHT22;20423;49.448;9.056;2023-04-25T13:05:31;10.30;99.90
34147;DHT22;20423;49.448;9.056;2023-04-25T13:07:56;9.80;99.90
34147;DHT22;20423;49.448;9.056;2023-04-25T13:10:22;9.60;99.90
34147;DHT22;20423;49.448;9.056;2023-04-25T13:12:48;9.40;99.90
34147;DHT22;20423;49.448;9.056;2023-04-25T13:15:14;9.50;99.90
34147;DHT22;20423;49.448;9.056;2023-04-25T13:17:41;9.70;99.90
34147;DHT22;20423;49.448;9.056;2023-04-25T13:20:08;10.00;99.90
34147;DHT22;20423;49.448;9.056;2023-04-25T13:22:38;10.30;99.90
34147;DHT22;20423;49.448;9.056;2023-04-25T13:25:05;10.60;99.90
34147;DHT22;20423;49.448;9.056;2023-04-25T13:27:32;11.10;99.90
34147;DHT22;20423;49.448;9.056;2023-04-25T13:30:03;11.30;99.90
34147;DHT22;20423;49.448;9.056;2023-04-25T13:32:36;11.50;99.90
34147;DHT22;20423;49.448;9.056;2023-04-25T13:35:10;12.30;99.90
34147;DHT22;20423;49.448;9.056;2023-04-25T13:37:36;12.60;99.90
34147;DHT22;20423;49.448;9.056;2023-04-25T13:40:07;12.30;99.90
34147;DHT22;20423;49.448;9.056;2023-04-25T13:42:34;11.70;99.90
34147;DHT22;20423;49.448;9.056;2023-04-25T13:45:00;11.30;99.90
34147;DHT22;20423;49.448;9.056;2023-04-25T13:47:27;11.40;99.90
34147;DHT22;20423;49.448;9.056;2023-04-25T13:49:53;11.20;99.90
34147;DHT22;20423;49.448;9.056;2023-04-25T13:52:19;11.20;99.90
34147;DHT22;20423;49.448;9.056;2023-04-25T13:54:44;11.20;99.90
34147;DHT22;20423;49.448;9.056;2023-04-25T13:57:10;11.00;99.90
34147;DHT22;20423;49.448;9.056;2023-04-25T13:59:37;11.30;99.90
34147;DHT22;20423;49.448;9.056;2023-04-25T14:02:03;11.50;99.90
34147;DHT22;20423;49.448;9.056;2023-04-25T14:04:29;11.10;99.90
34147;DHT22;20423;49.448;9.056;2023-04-25T14:06:55;10.80;99.90
34147;DHT22;20423;49.448;9.056;2023-04-25T14:09:21;10.30;99.90
34147;DHT22;20423;49.448;9.056;2023-04-25T14:11:51;10.00;99.90
34147;DHT22;20423;49.448;9.056;2023-04-25T14:14:18;10.00;99.90
34147;DHT22;20423;49.448;9.056;2023-04-25T14:16:44;9.90;99.90
34147;DHT22;20423;49.448;9.056;2023-04-25T14:19:10;9.90;99.90
34147;DHT22;20423;49.448;9.056;2023-04-25T14:21:35;10.00;99.90
34147;DHT22;20423;49.448;9.056;2023-04-25T14:24:01;9.90;99.90
34147;DHT22;20423;49.448;9.056;2023-04-25T14:26:27;10.00;99.90
34147;DHT22;20423;49.448;9.056;2023-04-25T14:28:53;10.20;99.90
34147;DHT22;20423;49.448;9.056;2023-04-25T14:31:18;10.80;99.90
34147;DHT22;20423;49.448;9.056;2023-04-25T14:33:44;11.20;99.90
34147;DHT22;20423;49.448;9.056;2023-04-25T14:36:11;11.40;99.90
34147;DHT22;20423;49.448;9.056;2023-04-25T14:38:36;11.10;99.90
34147;DHT22;20423;49.448;9.056;2023-04-25T14:41:02;10.70;99.90
34147;DHT22;20423;49.448;9.056;2023-04-25T14:43:28;10.60;99.90
34147;DHT22;20423;49.448;9.056;2023-04-25T14:45:54;10.60;99.90
34147;DHT22;20423;49.448;9.056;2023-04-25T14:48:19;10.10;99.90
34147;DHT22;20423;49.448;9.056;2023-04-25T14:50:46;9.90;99.90
34147;DHT22;20423;49.448;9.056;2023-04-25T14:53:12;9.80;99.90
34147;DHT22;20423;49.448;9.056;2023-04-25T14:55:38;10.00;99.90
34147;DHT22;20423;49.448;9.056;2023-04-25T14:58:03;10.50;99.90
34147;DHT22;20423;49.448;9.056;2023-04-25T15:00:29;10.50;99.90
34147;DHT22;20423;49.448;9.056;2023-04-25T15:02:57;10.50;99.90
34147;DHT22;20423;49.448;9.056;2023-04-25T15:05:24;10.40;99.90
34147;DHT22;20423;49.448;9.056;2023-04-25T15:07:49;10.30;99.90
34147;DHT22;20423;49.448;9.056;2023-04-25T15:10:17;10.10;99.90
34147;DHT22;20423;49.448;9.056;2023-04-25T15:12:43;10.00;99.90
34147;DHT22;20423;49.448;9.056;2023-04-25T15:15:10;9.90;99.90
34147;DHT22;20423;49.448;9.056;2023-04-25T15:17:40;9.90;99.90
34147;DHT22;20423;49.448;9.056;2023-04-25T15:20:07;9.90;99.90
34147;DHT22;20423;49.448;9.056;2023-04-25T15:22:36;9.80;99.90
34147;DHT22;20423;49.448;9.056;2023-04-25T15:25:02;9.60;99.90
34147;DHT22;20423;49.448;9.056;2023-04-25T15:27:28;9.40;99.90
34147;DHT22;20423;49.448;9.056;2023-04-25T15:29:54;9.40;99.90
34147;DHT22;20423;49.448;9.056;2023-04-25T15:32:20;9.40;99.90
34147;DHT22;20423;49.448;9.056;2023-04-25T15:34:46;9.30;99.90
34147;DHT22;20423;49.448;9.056;2023-04-25T15:37:12;9.40;99.90
34147;DHT22;20423;49.448;9.056;2023-04-25T15:39:37;9.40;99.90
34147;DHT22;20423;49.448;9.056;2023-04-25T15:42:03;9.50;99.90
34147;DHT22;20423;49.448;9.056;2023-04-25T15:44:29;9.50;99.90
34147;DHT22;20423;49.448;9.056;2023-04-25T15:46:54;9.40;99.90
34147;DHT22;20423;49.448;9.056;2023-04-25T15:49:20;9.40;99.90
34147;DHT22;20423;49.448;9.056;2023-04-25T15:51:47;9.50;99.90
34147;DHT22;20423;49.448;9.056;2023-04-25T15:54:13;9.50;99.90
34147;DHT22;20423;49.448;9.056;2023-04-25T15:56:38;9.20;99.90
34147;DHT22;20423;49.448;9.056;2023-04-25T15:59:04;9.00;99.90
34147;DHT22;20423;49.448;9.056;2023-04-25T16:01:30;8.80;99.90